sensor_id;sensor_type;location;lat;lon;timestamp;P1;durP1;ratioP1;P2;durP2;ratioP2
59938;SDS011;45801;51.810;19.444;2023-05-10T00:00:16;8.70;;;3.50;;
59938;SDS011;45801;51.810;19.444;2023-05-10T00:03:03;9.00;;;3.60;;
59938;SDS011;45801;51.810;19.444;2023-05-10T00:05:31;9.00;;;3.90;;
59938;SDS011;45801;51.810;19.444;2023-05-10T00:07:58;8.60;;;3.60;;
59938;SDS011;45801;51.810;19.444;2023-05-10T00:10:24;8.60;;;3.80;;
59938;SDS011;45801;51.810;19.444;2023-05-10T00:12:51;8.80;;;3.70;;
59938;SDS011;45801;51.810;19.444;2023-05-10T00:15:17;8.40;;;4.00;;
59938;SDS011;45801;51.810;19.444;2023-05-10T00:17:44;8.70;;;3.80;;
59938;SDS011;45801;51.810;19.444;2023-05-10T00:20:11;8.70;;;3.80;;
59938;SDS011;45801;51.810;19.444;2023-05-10T00:22:38;8.20;;;4.00;;
59938;SDS011;45801;51.810;19.444;2023-05-10T00:25:05;9.30;;;4.00;;
59938;SDS011;45801;51.810;19.444;2023-05-10T00:27:32;9.70;;;4.10;;
59938;SDS011;45801;51.810;19.444;2023-05-10T00:29:59;7.70;;;3.60;;
59938;SDS011;45801;51.810;19.444;2023-05-10T00:32:25;8.80;;;3.50;;
59938;SDS011;45801;51.810;19.444;2023-05-10T00:34:54;8.50;;;4.10;;
59938;SDS011;45801;51.810;19.444;2023-05-10T00:37:21;9.10;;;4.10;;
59938;SDS011;45801;51.810;19.444;2023-05-10T00:39:47;8.90;;;3.70;;
59938;SDS011;45801;51.810;19.444;2023-05-10T00:42:14;7.90;;;3.70;;
59938;SDS011;45801;51.810;19.444;2023-05-10T00:44:40;7.10;;;3.20;;
59938;SDS011;45801;51.810;19.444;2023-05-10T00:47:07;10.20;;;3.60;;
59938;SDS011;45801;51.810;19.444;2023-05-10T00:49:35;8.00;;;3.80;;
59938;SDS011;45801;51.810;19.444;2023-05-10T00:52:02;7.10;;;3.70;;
59938;SDS011;45801;51.810;19.444;2023-05-10T00:54:29;7.40;;;3.60;;
59938;SDS011;45801;51.810;19.444;2023-05-10T00:56:56;8.20;;;3.50;;
59938;SDS011;45801;51.810;19.444;2023-05-10T00:59:23;8.20;;;3.80;;
59938;SDS011;45801;51.810;19.444;2023-05-10T01:01:50;8.00;;;3.50;;
59938;SDS011;45801;51.810;19.444;2023-05-10T01:04:17;9.60;;;3.40;;
59938;SDS011;45801;51.810;19.444;2023-05-10T01:06:46;9.10;;;3.70;;
59938;SDS011;45801;51.810;19.444;2023-05-10T01:09:12;8.00;;;3.80;;
59938;SDS011;45801;51.810;19.444;2023-05-10T01:11:39;9.90;;;3.60;;
59938;SDS011;45801;51.810;19.444;2023-05-10T01:14:06;9.10;;;4.10;;
59938;SDS011;45801;51.810;19.444;2023-05-10T01:16:36;8.10;;;3.70;;
59938;SDS011;45801;51.810;19.444;2023-05-10T01:19:05;11.50;;;4.00;;
59938;SDS011;45801;51.810;19.444;2023-05-10T01:21:40;8.30;;;3.90;;
59938;SDS011;45801;51.810;19.444;2023-05-10T01:33:05;9.00;;;3.50;;
59938;SDS011;45801;51.810;19.444;2023-05-10T01:41:55;8.30;;;3.20;;
59938;SDS011;45801;51.810;19.444;2023-05-10T01:44:37;8.80;;;4.00;;
59938;SDS011;45801;51.810;19.444;2023-05-10T01:47:11;7.90;;;3.60;;
59938;SDS011;45801;51.810;19.444;2023-05-10T01:49:43;7.80;;;3.20;;
59938;SDS011;45801;51.810;19.444;2023-05-10T01:52:16;10.60;;;4.00;;
59938;SDS011;45801;51.810;19.444;2023-05-10T01:54:49;12.00;;;3.80;;
59938;SDS011;45801;51.810;19.444;2023-05-10T01:57:22;7.90;;;3.40;;
59938;SDS011;45801;51.810;19.444;2023-05-10T01:59:52;9.80;;;3.80;;
59938;SDS011;45801;51.810;19.444;2023-05-10T02:02:21;7.60;;;3.30;;
59938;SDS011;45801;51.810;19.444;2023-05-10T02:04:50;8.50;;;3.00;;
59938;SDS011;45801;51.810;19.444;2023-05-10T02:07:19;10.00;;;3.70;;
59938;SDS011;45801;51.810;19.444;2023-05-10T02:09:48;9.20;;;3.90;;
59938;SDS011;45801;51.810;19.444;2023-05-10T02:12:14;8.60;;;3.70;;
59938;SDS011;45801;51.810;19.444;2023-05-10T02:14:42;8.50;;;3.70;;
59938;SDS011;45801;51.810;19.444;2023-05-10T02:17:09;9.50;;;3.80;;
59938;SDS011;45801;51.810;19.444;2023-05-10T02:19:39;7.90;;;3.70;;
59938;SDS011;45801;51.810;19.444;2023-05-10T02:22:07;6.80;;;3.10;;
59938;SDS011;45801;51.810;19.444;2023-05-10T02:24:36;8.20;;;3.40;;
59938;SDS011;45801;51.810;19.444;2023-05-10T02:27:03;8.70;;;3.90;;
59938;SDS011;45801;51.810;19.444;2023-05-10T02:29:31;7.10;;;3.40;;
59938;SDS011;45801;51.810;19.444;2023-05-10T02:31:59;6.80;;;3.00;;
59938;SDS011;45801;51.810;19.444;2023-05-10T02:34:27;8.70;;;3.30;;
59938;SDS011;45801;51.810;19.444;2023-05-10T02:36:55;9.90;;;3.50;;
59938;SDS011;45801;51.810;19.444;2023-05-10T02:39:22;8.90;;;3.80;;
59938;SDS011;45801;51.810;19.444;2023-05-10T02:41:51;10.30;;;3.70;;
59938;SDS011;45801;51.810;19.444;2023-05-10T02:44:19;7.40;;;3.30;;
59938;SDS011;45801;51.810;19.444;2023-05-10T02:46:49;8.10;;;3.40;;
59938;SDS011;45801;51.810;19.444;2023-05-10T02:49:15;7.60;;;3.30;;
59938;SDS011;45801;51.810;19.444;2023-05-10T02:51:47;8.20;;;3.60;;
59938;SDS011;45801;51.810;19.444;2023-05-10T02:54:22;7.40;;;3.40;;
59938;SDS011;45801;51.810;19.444;2023-05-10T02:56:54;8.40;;;3.40;;
59938;SDS011;45801;51.810;19.444;2023-05-10T02:59:23;9.80;;;3.40;;
59938;SDS011;45801;51.810;19.444;2023-05-10T03:01:50;8.60;;;3.60;;
59938;SDS011;45801;51.810;19.444;2023-05-10T03:04:16;8.60;;;3.70;;
59938;SDS011;45801;51.810;19.444;2023-05-10T03:06:43;8.40;;;3.90;;
59938;SDS011;45801;51.810;19.444;2023-05-10T03:09:10;10.70;;;3.90;;
59938;SDS011;45801;51.810;19.444;2023-05-10T03:14:34;8.00;;;3.60;;
59938;SDS011;45801;51.810;19.444;2023-05-10T03:22:54;7.20;;;3.40;;
59938;SDS011;45801;51.810;19.444;2023-05-10T03:25:24;8.50;;;3.40;;
59938;SDS011;45801;51.810;19.444;2023-05-10T03:27:51;8.40;;;3.60;;
59938;SDS011;45801;51.810;19.444;2023-05-10T03:30:18;8.90;;;3.70;;
59938;SDS011;45801;51.810;19.444;2023-05-10T03:32:45;10.10;;;3.30;;
59938;SDS011;45801;51.810;19.444;2023-05-10T03:35:12;10.00;;;3.70;;
59938;SDS011;45801;51.810;19.444;2023-05-10T03:37:41;8.80;;;3.50;;
59938;SDS011;45801;51.810;19.444;2023-05-10T03:40:10;9.50;;;3.50;;
59938;SDS011;45801;51.810;19.444;2023-05-10T03:42:36;8.50;;;3.80;;
59938;SDS011;45801;51.810;19.444;2023-05-10T03:45:03;9.10;;;3.30;;
59938;SDS011;45801;51.810;19.444;2023-05-10T03:47:31;9.60;;;3.60;;
59938;SDS011;45801;51.810;19.444;2023-05-10T03:49:57;6.20;;;3.00;;
59938;SDS011;45801;51.810;19.444;2023-05-10T03:52:24;8.30;;;3.90;;
59938;SDS011;45801;51.810;19.444;2023-05-10T03:54:50;9.00;;;3.70;;
59938;SDS011;45801;51.810;19.444;2023-05-10T03:57:17;8.20;;;3.40;;
59938;SDS011;45801;51.810;19.444;2023-05-10T03:59:44;8.60;;;3.70;;
59938;SDS011;45801;51.810;19.444;2023-05-10T04:02:11;9.10;;;3.10;;
59938;SDS011;45801;51.810;19.444;2023-05-10T04:04:37;9.30;;;3.60;;
59938;SDS011;45801;51.810;19.444;2023-05-10T04:07:04;8.60;;;3.20;;
59938;SDS011;45801;51.810;19.444;2023-05-10T04:09:31;9.10;;;3.40;;
59938;SDS011;45801;51.810;19.444;2023-05-10T04:11:58;7.40;;;3.00;;
59938;SDS011;45801;51.810;19.444;2023-05-10T04:14:25;8.80;;;3.20;;
59938;SDS011;45801;51.810;19.444;2023-05-10T04:16:51;7.10;;;3.40;;
59938;SDS011;45801;51.810;19.444;2023-05-10T04:19:17;8.40;;;3.30;;
59938;SDS011;45801;51.810;19.444;2023-05-10T04:21:44;8.20;;;3.60;;
59938;SDS011;45801;51.810;19.444;2023-05-10T04:24:10;9.10;;;3.60;;
59938;SDS011;45801;51.810;19.444;2023-05-10T04:26:37;10.20;;;3.30;;
59938;SDS011;45801;51.810;19.444;2023-05-10T04:29:04;7.40;;;3.00;;
59938;SDS011;45801;51.810;19.444;2023-05-10T04:31:30;7.20;;;3.20;;
59938;SDS011;45801;51.810;19.444;2023-05-10T04:33:57;8.50;;;3.70;;
59938;SDS011;45801;51.810;19.444;2023-05-10T04:36:23;8.20;;;4.20;;
59938;SDS011;45801;51.810;19.444;2023-05-10T04:38:50;10.40;;;3.80;;
59938;SDS011;45801;51.810;19.444;2023-05-10T04:41:16;8.20;;;3.50;;
59938;SDS011;45801;51.810;19.444;2023-05-10T04:43:43;9.40;;;3.40;;
59938;SDS011;45801;51.810;19.444;2023-05-10T04:46:09;8.40;;;3.50;;
59938;SDS011;45801;51.810;19.444;2023-05-10T04:48:36;12.30;;;3.60;;
59938;SDS011;45801;51.810;19.444;2023-05-10T04:51:02;10.50;;;3.30;;
59938;SDS011;45801;51.810;19.444;2023-05-10T04:53:30;9.50;;;3.70;;
59938;SDS011;45801;51.810;19.444;2023-05-10T04:55:56;7.00;;;3.00;;
59938;SDS011;45801;51.810;19.444;2023-05-10T04:58:23;9.10;;;3.80;;
59938;SDS011;45801;51.810;19.444;2023-05-10T05:00:49;7.80;;;3.40;;
59938;SDS011;45801;51.810;19.444;2023-05-10T05:03:16;9.60;;;3.70;;
59938;SDS011;45801;51.810;19.444;2023-05-10T05:05:43;10.30;;;3.90;;
59938;SDS011;45801;51.810;19.444;2023-05-10T05:08:10;10.20;;;3.70;;
59938;SDS011;45801;51.810;19.444;2023-05-10T05:10:37;7.60;;;3.40;;
59938;SDS011;45801;51.810;19.444;2023-05-10T05:13:03;9.00;;;3.00;;
59938;SDS011;45801;51.810;19.444;2023-05-10T05:15:30;10.50;;;3.60;;
59938;SDS011;45801;51.810;19.444;2023-05-10T05:17:57;10.70;;;3.70;;
59938;SDS011;45801;51.810;19.444;2023-05-10T05:20:23;7.40;;;3.20;;
59938;SDS011;45801;51.810;19.444;2023-05-10T05:22:50;10.10;;;3.20;;
59938;SDS011;45801;51.810;19.444;2023-05-10T05:25:16;9.40;;;3.50;;
59938;SDS011;45801;51.810;19.444;2023-05-10T05:27:42;7.90;;;3.80;;
59938;SDS011;45801;51.810;19.444;2023-05-10T05:30:09;8.50;;;3.50;;
59938;SDS011;45801;51.810;19.444;2023-05-10T05:32:36;8.70;;;3.70;;
59938;SDS011;45801;51.810;19.444;2023-05-10T05:35:02;8.50;;;3.30;;
59938;SDS011;45801;51.810;19.444;2023-05-10T05:37:29;8.40;;;3.30;;
59938;SDS011;45801;51.810;19.444;2023-05-10T05:39:55;6.80;;;3.30;;
59938;SDS011;45801;51.810;19.444;2023-05-10T05:42:22;9.10;;;3.50;;
59938;SDS011;45801;51.810;19.444;2023-05-10T05:44:49;9.80;;;3.90;;
59938;SDS011;45801;51.810;19.444;2023-05-10T05:47:16;11.50;;;3.50;;
59938;SDS011;45801;51.810;19.444;2023-05-10T05:49:42;8.60;;;3.20;;
59938;SDS011;45801;51.810;19.444;2023-05-10T05:52:11;9.90;;;3.90;;
59938;SDS011;45801;51.810;19.444;2023-05-10T05:54:38;11.10;;;3.40;;
59938;SDS011;45801;51.810;19.444;2023-05-10T05:57:04;9.70;;;4.00;;
59938;SDS011;45801;51.810;19.444;2023-05-10T05:59:31;12.20;;;3.70;;
59938;SDS011;45801;51.810;19.444;2023-05-10T06:01:58;8.40;;;3.40;;
59938;SDS011;45801;51.810;19.444;2023-05-10T06:04:24;9.10;;;3.20;;
59938;SDS011;45801;51.810;19.444;2023-05-10T06:06:51;7.80;;;3.00;;
59938;SDS011;45801;51.810;19.444;2023-05-10T06:09:17;7.40;;;3.30;;
59938;SDS011;45801;51.810;19.444;2023-05-10T06:11:44;10.00;;;3.20;;
59938;SDS011;45801;51.810;19.444;2023-05-10T06:14:11;7.30;;;2.60;;
59938;SDS011;45801;51.810;19.444;2023-05-10T06:16:37;9.30;;;3.50;;
59938;SDS011;45801;51.810;19.444;2023-05-10T06:19:04;8.70;;;3.90;;
59938;SDS011;45801;51.810;19.444;2023-05-10T06:21:31;10.30;;;3.90;;
59938;SDS011;45801;51.810;19.444;2023-05-10T06:23:57;8.70;;;3.90;;
59938;SDS011;45801;51.810;19.444;2023-05-10T06:26:24;9.10;;;3.40;;
59938;SDS011;45801;51.810;19.444;2023-05-10T06:28:51;11.40;;;3.70;;
59938;SDS011;45801;51.810;19.444;2023-05-10T06:31:17;7.90;;;3.20;;
59938;SDS011;45801;51.810;19.444;2023-05-10T06:33:55;10.30;;;3.90;;
59938;SDS011;45801;51.810;19.444;2023-05-10T06:36:21;9.60;;;4.00;;
59938;SDS011;45801;51.810;19.444;2023-05-10T06:38:48;8.80;;;3.50;;
59938;SDS011;45801;51.810;19.444;2023-05-10T06:41:14;7.30;;;3.30;;
59938;SDS011;45801;51.810;19.444;2023-05-10T06:43:41;8.90;;;3.30;;
59938;SDS011;45801;51.810;19.444;2023-05-10T06:46:07;10.20;;;3.70;;
59938;SDS011;45801;51.810;19.444;2023-05-10T06:48:34;12.60;;;3.80;;
59938;SDS011;45801;51.810;19.444;2023-05-10T06:51:00;8.40;;;3.40;;
59938;SDS011;45801;51.810;19.444;2023-05-10T06:53:27;11.10;;;3.60;;
59938;SDS011;45801;51.810;19.444;2023-05-10T06:55:53;7.40;;;3.20;;
59938;SDS011;45801;51.810;19.444;2023-05-10T06:58:20;8.60;;;3.60;;
59938;SDS011;45801;51.810;19.444;2023-05-10T07:00:47;9.00;;;3.40;;
59938;SDS011;45801;51.810;19.444;2023-05-10T07:03:13;9.30;;;3.40;;
59938;SDS011;45801;51.810;19.444;2023-05-10T07:05:40;7.60;;;3.20;;
59938;SDS011;45801;51.810;19.444;2023-05-10T07:08:06;8.00;;;3.40;;
59938;SDS011;45801;51.810;19.444;2023-05-10T07:10:33;8.30;;;3.80;;
59938;SDS011;45801;51.810;19.444;2023-05-10T07:13:00;7.90;;;3.50;;
59938;SDS011;45801;51.810;19.444;2023-05-10T07:15:27;7.80;;;3.40;;
59938;SDS011;45801;51.810;19.444;2023-05-10T07:17:54;9.80;;;4.10;;
59938;SDS011;45801;51.810;19.444;2023-05-10T07:20:21;7.80;;;3.80;;
59938;SDS011;45801;51.810;19.444;2023-05-10T07:22:47;8.90;;;3.40;;
59938;SDS011;45801;51.810;19.444;2023-05-10T07:25:14;7.10;;;3.10;;
59938;SDS011;45801;51.810;19.444;2023-05-10T07:27:40;8.60;;;3.30;;
59938;SDS011;45801;51.810;19.444;2023-05-10T07:30:07;7.80;;;3.40;;
59938;SDS011;45801;51.810;19.444;2023-05-10T07:32:34;9.80;;;3.80;;
59938;SDS011;45801;51.810;19.444;2023-05-10T07:35:00;9.60;;;3.50;;
59938;SDS011;45801;51.810;19.444;2023-05-10T07:37:27;9.30;;;3.70;;
59938;SDS011;45801;51.810;19.444;2023-05-10T07:39:53;9.70;;;3.90;;
59938;SDS011;45801;51.810;19.444;2023-05-10T07:42:19;7.10;;;2.70;;
59938;SDS011;45801;51.810;19.444;2023-05-10T07:44:46;8.30;;;3.10;;
59938;SDS011;45801;51.810;19.444;2023-05-10T07:47:13;7.80;;;3.20;;
59938;SDS011;45801;51.810;19.444;2023-05-10T07:49:39;7.80;;;3.20;;
59938;SDS011;45801;51.810;19.444;2023-05-10T07:52:06;6.30;;;3.20;;
59938;SDS011;45801;51.810;19.444;2023-05-10T07:54:33;8.10;;;3.50;;
59938;SDS011;45801;51.810;19.444;2023-05-10T07:57:00;7.20;;;3.30;;
59938;SDS011;45801;51.810;19.444;2023-05-10T07:59:27;7.60;;;3.10;;
59938;SDS011;45801;51.810;19.444;2023-05-10T08:01:54;7.40;;;3.20;;
59938;SDS011;45801;51.810;19.444;2023-05-10T08:04:21;7.10;;;3.20;;
59938;SDS011;45801;51.810;19.444;2023-05-10T08:06:48;7.00;;;3.50;;
59938;SDS011;45801;51.810;19.444;2023-05-10T08:09:15;8.00;;;3.90;;
59938;SDS011;45801;51.810;19.444;2023-05-10T08:11:42;6.40;;;3.10;;
59938;SDS011;45801;51.810;19.444;2023-05-10T08:14:09;8.10;;;3.40;;
59938;SDS011;45801;51.810;19.444;2023-05-10T08:16:36;7.20;;;3.20;;
59938;SDS011;45801;51.810;19.444;2023-05-10T08:19:02;6.80;;;3.20;;
59938;SDS011;45801;51.810;19.444;2023-05-10T08:21:29;6.60;;;2.70;;
59938;SDS011;45801;51.810;19.444;2023-05-10T08:23:55;7.40;;;2.90;;
59938;SDS011;45801;51.810;19.444;2023-05-10T08:26:22;8.80;;;3.20;;
59938;SDS011;45801;51.810;19.444;2023-05-10T08:28:48;7.30;;;3.10;;
59938;SDS011;45801;51.810;19.444;2023-05-10T08:31:15;6.20;;;2.80;;
59938;SDS011;45801;51.810;19.444;2023-05-10T08:33:42;8.00;;;2.50;;
59938;SDS011;45801;51.810;19.444;2023-05-10T08:36:09;7.40;;;2.90;;
59938;SDS011;45801;51.810;19.444;2023-05-10T08:38:35;7.10;;;3.10;;
59938;SDS011;45801;51.810;19.444;2023-05-10T08:41:03;9.60;;;2.80;;
59938;SDS011;45801;51.810;19.444;2023-05-10T08:43:31;6.80;;;3.10;;
59938;SDS011;45801;51.810;19.444;2023-05-10T08:46:01;8.80;;;3.10;;
59938;SDS011;45801;51.810;19.444;2023-05-10T08:48:31;8.70;;;2.90;;
59938;SDS011;45801;51.810;19.444;2023-05-10T08:51:00;6.70;;;2.80;;
59938;SDS011;45801;51.810;19.444;2023-05-10T08:53:30;5.70;;;2.40;;
59938;SDS011;45801;51.810;19.444;2023-05-10T08:55:59;6.40;;;2.80;;
59938;SDS011;45801;51.810;19.444;2023-05-10T09:01:13;8.50;;;3.10;;
59938;SDS011;45801;51.810;19.444;2023-05-10T09:03:40;7.10;;;2.50;;
59938;SDS011;45801;51.810;19.444;2023-05-10T09:06:07;7.20;;;3.00;;
59938;SDS011;45801;51.810;19.444;2023-05-10T09:08:34;6.90;;;2.90;;
59938;SDS011;45801;51.810;19.444;2023-05-10T09:11:00;7.10;;;2.80;;
59938;SDS011;45801;51.810;19.444;2023-05-10T09:13:27;7.50;;;2.70;;
59938;SDS011;45801;51.810;19.444;2023-05-10T09:15:54;7.10;;;2.90;;
59938;SDS011;45801;51.810;19.444;2023-05-10T09:18:21;9.80;;;3.20;;
59938;SDS011;45801;51.810;19.444;2023-05-10T09:20:48;7.00;;;2.40;;
59938;SDS011;45801;51.810;19.444;2023-05-10T09:23:14;7.40;;;2.60;;
59938;SDS011;45801;51.810;19.444;2023-05-10T09:25:41;8.80;;;3.00;;
59938;SDS011;45801;51.810;19.444;2023-05-10T09:28:08;8.30;;;2.80;;
59938;SDS011;45801;51.810;19.444;2023-05-10T09:30:35;7.70;;;2.80;;
59938;SDS011;45801;51.810;19.444;2023-05-10T09:33:02;6.30;;;2.70;;
59938;SDS011;45801;51.810;19.444;2023-05-10T09:35:32;7.60;;;2.80;;
59938;SDS011;45801;51.810;19.444;2023-05-10T09:38:00;8.40;;;2.40;;
59938;SDS011;45801;51.810;19.444;2023-05-10T09:40:28;8.10;;;2.40;;
59938;SDS011;45801;51.810;19.444;2023-05-10T09:42:56;6.70;;;2.80;;
59938;SDS011;45801;51.810;19.444;2023-05-10T09:45:25;6.10;;;2.70;;
59938;SDS011;45801;51.810;19.444;2023-05-10T09:47:57;7.40;;;2.90;;
59938;SDS011;45801;51.810;19.444;2023-05-10T09:50:24;6.90;;;2.50;;
59938;SDS011;45801;51.810;19.444;2023-05-10T09:52:55;7.30;;;2.80;;
59938;SDS011;45801;51.810;19.444;2023-05-10T09:55:43;8.20;;;2.80;;
59938;SDS011;45801;51.810;19.444;2023-05-10T09:58:12;6.10;;;2.70;;
59938;SDS011;45801;51.810;19.444;2023-05-10T10:00:40;6.80;;;2.80;;
59938;SDS011;45801;51.810;19.444;2023-05-10T10:03:12;6.40;;;2.40;;
59938;SDS011;45801;51.810;19.444;2023-05-10T10:05:43;7.20;;;2.70;;
59938;SDS011;45801;51.810;19.444;2023-05-10T10:08:10;7.70;;;3.00;;
59938;SDS011;45801;51.810;19.444;2023-05-10T10:10:38;6.50;;;2.60;;
59938;SDS011;45801;51.810;19.444;2023-05-10T10:13:10;5.60;;;2.40;;
59938;SDS011;45801;51.810;19.444;2023-05-10T10:15:36;6.60;;;2.80;;
59938;SDS011;45801;51.810;19.444;2023-05-10T10:18:03;6.40;;;2.60;;
59938;SDS011;45801;51.810;19.444;2023-05-10T10:20:31;7.00;;;2.80;;
59938;SDS011;45801;51.810;19.444;2023-05-10T10:22:58;6.60;;;2.80;;
59938;SDS011;45801;51.810;19.444;2023-05-10T10:25:24;6.20;;;2.60;;
59938;SDS011;45801;51.810;19.444;2023-05-10T10:35:55;5.00;;;2.20;;
59938;SDS011;45801;51.810;19.444;2023-05-10T10:38:25;6.30;;;2.70;;
59938;SDS011;45801;51.810;19.444;2023-05-10T10:41:01;8.10;;;2.60;;
59938;SDS011;45801;51.810;19.444;2023-05-10T10:43:29;6.60;;;2.50;;
59938;SDS011;45801;51.810;19.444;2023-05-10T10:46:09;6.60;;;2.40;;
59938;SDS011;45801;51.810;19.444;2023-05-10T10:48:47;6.10;;;2.30;;
59938;SDS011;45801;51.810;19.444;2023-05-10T10:51:15;6.00;;;2.40;;
59938;SDS011;45801;51.810;19.444;2023-05-10T10:53:42;7.90;;;2.50;;
59938;SDS011;45801;51.810;19.444;2023-05-10T10:56:10;8.00;;;2.90;;
59938;SDS011;45801;51.810;19.444;2023-05-10T10:58:39;6.00;;;2.20;;
59938;SDS011;45801;51.810;19.444;2023-05-10T11:01:13;5.30;;;2.40;;
59938;SDS011;45801;51.810;19.444;2023-05-10T11:06:32;7.40;;;2.60;;
59938;SDS011;45801;51.810;19.444;2023-05-10T11:09:07;6.00;;;2.80;;
59938;SDS011;45801;51.810;19.444;2023-05-10T11:11:35;6.20;;;2.40;;
59938;SDS011;45801;51.810;19.444;2023-05-10T11:14:14;7.00;;;2.70;;
59938;SDS011;45801;51.810;19.444;2023-05-10T11:16:41;9.10;;;3.00;;
59938;SDS011;45801;51.810;19.444;2023-05-10T11:19:13;5.90;;;2.30;;
59938;SDS011;45801;51.810;19.444;2023-05-10T11:24:31;6.80;;;2.70;;
59938;SDS011;45801;51.810;19.444;2023-05-10T11:27:00;7.90;;;2.50;;
59938;SDS011;45801;51.810;19.444;2023-05-10T11:29:27;7.20;;;2.20;;
59938;SDS011;45801;51.810;19.444;2023-05-10T11:31:56;6.40;;;2.40;;
59938;SDS011;45801;51.810;19.444;2023-05-10T11:34:28;5.50;;;2.40;;
59938;SDS011;45801;51.810;19.444;2023-05-10T11:36:57;5.60;;;2.10;;
59938;SDS011;45801;51.810;19.444;2023-05-10T11:39:27;4.90;;;2.10;;
59938;SDS011;45801;51.810;19.444;2023-05-10T11:41:54;7.70;;;2.40;;
59938;SDS011;45801;51.810;19.444;2023-05-10T11:44:21;5.50;;;2.20;;
59938;SDS011;45801;51.810;19.444;2023-05-10T11:46:48;7.20;;;2.90;;
59938;SDS011;45801;51.810;19.444;2023-05-10T11:49:15;6.60;;;2.60;;
59938;SDS011;45801;51.810;19.444;2023-05-10T11:51:42;5.80;;;2.50;;
59938;SDS011;45801;51.810;19.444;2023-05-10T11:54:10;7.20;;;2.70;;
59938;SDS011;45801;51.810;19.444;2023-05-10T11:56:37;6.90;;;2.20;;
59938;SDS011;45801;51.810;19.444;2023-05-10T11:59:05;6.20;;;2.30;;
59938;SDS011;45801;51.810;19.444;2023-05-10T12:01:32;4.80;;;2.00;;
59938;SDS011;45801;51.810;19.444;2023-05-10T12:03:59;5.30;;;2.00;;
59938;SDS011;45801;51.810;19.444;2023-05-10T12:06:27;7.50;;;2.60;;
59938;SDS011;45801;51.810;19.444;2023-05-10T12:08:57;8.40;;;2.40;;
59938;SDS011;45801;51.810;19.444;2023-05-10T12:11:25;6.80;;;2.50;;
59938;SDS011;45801;51.810;19.444;2023-05-10T12:13:56;6.30;;;2.50;;
59938;SDS011;45801;51.810;19.444;2023-05-10T12:16:23;6.00;;;2.50;;
59938;SDS011;45801;51.810;19.444;2023-05-10T12:18:51;4.60;;;1.90;;
59938;SDS011;45801;51.810;19.444;2023-05-10T12:21:19;5.30;;;2.00;;
59938;SDS011;45801;51.810;19.444;2023-05-10T12:23:51;7.80;;;2.50;;
59938;SDS011;45801;51.810;19.444;2023-05-10T12:26:27;6.50;;;2.80;;
59938;SDS011;45801;51.810;19.444;2023-05-10T12:28:55;6.60;;;2.30;;
59938;SDS011;45801;51.810;19.444;2023-05-10T12:34:31;7.10;;;2.30;;
59938;SDS011;45801;51.810;19.444;2023-05-10T12:36:59;5.80;;;2.10;;
59938;SDS011;45801;51.810;19.444;2023-05-10T12:39:26;6.30;;;2.30;;
59938;SDS011;45801;51.810;19.444;2023-05-10T12:42:06;6.80;;;2.20;;
59938;SDS011;45801;51.810;19.444;2023-05-10T12:44:33;7.00;;;2.60;;
59938;SDS011;45801;51.810;19.444;2023-05-10T12:46:59;7.40;;;2.30;;
59938;SDS011;45801;51.810;19.444;2023-05-10T12:49:26;6.60;;;2.50;;
59938;SDS011;45801;51.810;19.444;2023-05-10T12:51:53;7.90;;;2.50;;
59938;SDS011;45801;51.810;19.444;2023-05-10T12:54:19;5.90;;;2.30;;
59938;SDS011;45801;51.810;19.444;2023-05-10T12:56:45;6.90;;;2.70;;
59938;SDS011;45801;51.810;19.444;2023-05-10T12:59:12;5.20;;;2.30;;
59938;SDS011;45801;51.810;19.444;2023-05-10T13:01:38;8.20;;;2.70;;
59938;SDS011;45801;51.810;19.444;2023-05-10T13:04:05;7.20;;;2.60;;
59938;SDS011;45801;51.810;19.444;2023-05-10T13:06:32;10.40;;;2.50;;
59938;SDS011;45801;51.810;19.444;2023-05-10T13:08:58;7.90;;;2.40;;
59938;SDS011;45801;51.810;19.444;2023-05-10T13:11:24;8.00;;;2.40;;
59938;SDS011;45801;51.810;19.444;2023-05-10T13:13:51;6.50;;;2.30;;
59938;SDS011;45801;51.810;19.444;2023-05-10T13:16:17;5.40;;;2.30;;
59938;SDS011;45801;51.810;19.444;2023-05-10T13:18:44;6.00;;;2.30;;
59938;SDS011;45801;51.810;19.444;2023-05-10T13:21:10;7.60;;;2.50;;
59938;SDS011;45801;51.810;19.444;2023-05-10T13:23:37;6.10;;;2.30;;
59938;SDS011;45801;51.810;19.444;2023-05-10T13:26:03;5.70;;;2.50;;
59938;SDS011;45801;51.810;19.444;2023-05-10T13:28:30;7.00;;;2.50;;
59938;SDS011;45801;51.810;19.444;2023-05-10T13:30:56;6.30;;;2.30;;
59938;SDS011;45801;51.810;19.444;2023-05-10T13:33:23;7.00;;;2.60;;
59938;SDS011;45801;51.810;19.444;2023-05-10T13:35:49;6.20;;;2.30;;
59938;SDS011;45801;51.810;19.444;2023-05-10T13:38:16;7.20;;;2.70;;
59938;SDS011;45801;51.810;19.444;2023-05-10T13:40:43;7.90;;;2.70;;
59938;SDS011;45801;51.810;19.444;2023-05-10T13:43:10;7.80;;;2.90;;
59938;SDS011;45801;51.810;19.444;2023-05-10T13:45:37;6.60;;;2.60;;
59938;SDS011;45801;51.810;19.444;2023-05-10T13:48:05;7.90;;;2.40;;
59938;SDS011;45801;51.810;19.444;2023-05-10T13:50:32;7.00;;;2.60;;
59938;SDS011;45801;51.810;19.444;2023-05-10T13:52:58;7.50;;;2.10;;
59938;SDS011;45801;51.810;19.444;2023-05-10T13:58:48;6.30;;;2.20;;
59938;SDS011;45801;51.810;19.444;2023-05-10T14:01:15;7.50;;;3.00;;
59938;SDS011;45801;51.810;19.444;2023-05-10T14:03:41;6.40;;;2.70;;
59938;SDS011;45801;51.810;19.444;2023-05-10T14:06:08;7.40;;;2.80;;
59938;SDS011;45801;51.810;19.444;2023-05-10T14:08:35;6.20;;;2.30;;
59938;SDS011;45801;51.810;19.444;2023-05-10T14:11:02;7.60;;;2.80;;
59938;SDS011;45801;51.810;19.444;2023-05-10T14:13:29;6.40;;;2.40;;
59938;SDS011;45801;51.810;19.444;2023-05-10T14:15:56;6.10;;;2.40;;
59938;SDS011;45801;51.810;19.444;2023-05-10T14:18:23;6.70;;;2.50;;
59938;SDS011;45801;51.810;19.444;2023-05-10T14:20:50;7.50;;;2.50;;
59938;SDS011;45801;51.810;19.444;2023-05-10T14:23:17;7.90;;;2.50;;
59938;SDS011;45801;51.810;19.444;2023-05-10T14:25:46;8.10;;;2.60;;
59938;SDS011;45801;51.810;19.444;2023-05-10T14:28:13;8.30;;;2.60;;
59938;SDS011;45801;51.810;19.444;2023-05-10T14:30:40;6.70;;;2.70;;
59938;SDS011;45801;51.810;19.444;2023-05-10T14:33:07;7.20;;;2.40;;
59938;SDS011;45801;51.810;19.444;2023-05-10T14:35:33;6.10;;;2.40;;
59938;SDS011;45801;51.810;19.444;2023-05-10T14:38:01;7.50;;;2.30;;
59938;SDS011;45801;51.810;19.444;2023-05-10T14:40:29;7.60;;;2.10;;
59938;SDS011;45801;51.810;19.444;2023-05-10T14:42:56;6.10;;;2.10;;
59938;SDS011;45801;51.810;19.444;2023-05-10T14:45:23;5.40;;;2.20;;
59938;SDS011;45801;51.810;19.444;2023-05-10T14:47:49;5.70;;;2.10;;
59938;SDS011;45801;51.810;19.444;2023-05-10T14:50:17;5.20;;;2.20;;
59938;SDS011;45801;51.810;19.444;2023-05-10T14:56:01;6.70;;;2.50;;
59938;SDS011;45801;51.810;19.444;2023-05-10T14:58:29;5.30;;;2.10;;
59938;SDS011;45801;51.810;19.444;2023-05-10T15:00:58;7.40;;;2.20;;
59938;SDS011;45801;51.810;19.444;2023-05-10T15:03:24;5.90;;;2.20;;
59938;SDS011;45801;51.810;19.444;2023-05-10T15:05:51;5.60;;;2.30;;
59938;SDS011;45801;51.810;19.444;2023-05-10T15:08:19;7.30;;;2.30;;
59938;SDS011;45801;51.810;19.444;2023-05-10T15:10:46;9.80;;;2.10;;
59938;SDS011;45801;51.810;19.444;2023-05-10T15:13:13;7.40;;;2.40;;
59938;SDS011;45801;51.810;19.444;2023-05-10T15:15:39;7.10;;;2.80;;
59938;SDS011;45801;51.810;19.444;2023-05-10T15:18:06;7.70;;;2.40;;
59938;SDS011;45801;51.810;19.444;2023-05-10T15:20:32;7.40;;;3.30;;
59938;SDS011;45801;51.810;19.444;2023-05-10T15:22:59;6.70;;;2.30;;
59938;SDS011;45801;51.810;19.444;2023-05-10T15:25:25;7.50;;;2.40;;